sensor_id;sensor_type;location;lat;lon;timestamp;P1;durP1;ratioP1;P2;durP2;ratioP2
60488;SDS011;46331;49.252;8.904;2024-03-29T00:00:17;5.87;;;1.13;;
60488;SDS011;46331;49.252;8.904;2024-03-29T00:00:58;4.55;;;1.27;;
60488;SDS011;46331;49.252;8.904;2024-03-29T00:01:40;4.60;;;1.17;;
60488;SDS011;46331;49.252;8.904;2024-03-29T00:02:20;4.67;;;1.27;;
60488;SDS011;46331;49.252;8.904;2024-03-29T00:03:01;4.07;;;1.20;;
60488;SDS011;46331;49.252;8.904;2024-03-29T00:03:41;5.78;;;1.35;;
60488;SDS011;46331;49.252;8.904;2024-03-29T00:04:23;4.20;;;0.95;;
60488;SDS011;46331;49.252;8.904;2024-03-29T00:05:03;5.40;;;1.10;;
60488;SDS011;46331;49.252;8.904;2024-03-29T00:05:44;2.80;;;0.70;;
60488;SDS011;46331;49.252;8.904;2024-03-29T00:06:25;3.10;;;0.90;;
60488;SDS011;46331;49.252;8.904;2024-03-29T00:07:05;3.92;;;1.20;;
60488;SDS011;46331;49.252;8.904;2024-03-29T00:07:46;3.13;;;0.77;;
60488;SDS011;46331;49.252;8.904;2024-03-29T00:08:27;7.67;;;0.87;;
60488;SDS011;46331;49.252;8.904;2024-03-29T00:09:07;4.97;;;0.80;;
60488;SDS011;46331;49.252;8.904;2024-03-29T00:09:48;3.53;;;0.70;;
60488;SDS011;46331;49.252;8.904;2024-03-29T00:10:29;5.53;;;1.23;;
60488;SDS011;46331;49.252;8.904;2024-03-29T00:11:12;5.72;;;0.88;;
60488;SDS011;46331;49.252;8.904;2024-03-29T00:11:53;4.30;;;0.73;;
60488;SDS011;46331;49.252;8.904;2024-03-29T00:12:33;3.70;;;0.93;;
60488;SDS011;46331;49.252;8.904;2024-03-29T00:13:14;3.13;;;0.60;;
60488;SDS011;46331;49.252;8.904;2024-03-29T00:13:54;3.00;;;0.60;;
60488;SDS011;46331;49.252;8.904;2024-03-29T00:14:35;2.47;;;0.50;;
60488;SDS011;46331;49.252;8.904;2024-03-29T00:15:15;3.70;;;0.80;;
60488;SDS011;46331;49.252;8.904;2024-03-29T00:15:56;2.58;;;0.45;;
60488;SDS011;46331;49.252;8.904;2024-03-29T00:16:36;5.63;;;1.03;;
60488;SDS011;46331;49.252;8.904;2024-03-29T00:17:17;2.92;;;0.57;;
60488;SDS011;46331;49.252;8.904;2024-03-29T00:17:58;4.00;;;0.70;;
60488;SDS011;46331;49.252;8.904;2024-03-29T00:18:39;4.33;;;0.70;;
60488;SDS011;46331;49.252;8.904;2024-03-29T00:19:19;1.63;;;0.35;;
60488;SDS011;46331;49.252;8.904;2024-03-29T00:20:00;4.67;;;0.63;;
60488;SDS011;46331;49.252;8.904;2024-03-29T00:20:40;5.90;;;0.80;;
60488;SDS011;46331;49.252;8.904;2024-03-29T00:21:21;6.03;;;0.40;;
60488;SDS011;46331;49.252;8.904;2024-03-29T00:22:01;4.27;;;0.60;;
60488;SDS011;46331;49.252;8.904;2024-03-29T00:22:42;4.47;;;0.75;;
60488;SDS011;46331;49.252;8.904;2024-03-29T00:23:23;6.35;;;1.10;;
60488;SDS011;46331;49.252;8.904;2024-03-29T00:24:03;4.07;;;0.50;;
60488;SDS011;46331;49.252;8.904;2024-03-29T00:24:44;3.67;;;0.55;;
60488;SDS011;46331;49.252;8.904;2024-03-29T00:25:25;3.83;;;0.70;;
60488;SDS011;46331;49.252;8.904;2024-03-29T00:26:05;3.60;;;0.90;;
60488;SDS011;46331;49.252;8.904;2024-03-29T00:26:47;5.65;;;1.27;;
60488;SDS011;46331;49.252;8.904;2024-03-29T00:27:28;5.18;;;1.27;;
60488;SDS011;46331;49.252;8.904;2024-03-29T00:28:08;6.43;;;1.20;;
60488;SDS011;46331;49.252;8.904;2024-03-29T00:28:49;5.30;;;1.38;;
60488;SDS011;46331;49.252;8.904;2024-03-29T00:29:29;4.60;;;1.20;;
60488;SDS011;46331;49.252;8.904;2024-03-29T00:30:10;5.38;;;1.20;;
60488;SDS011;46331;49.252;8.904;2024-03-29T00:30:51;4.40;;;1.40;;
60488;SDS011;46331;49.252;8.904;2024-03-29T00:31:31;5.10;;;1.38;;
60488;SDS011;46331;49.252;8.904;2024-03-29T00:32:12;5.40;;;1.10;;
60488;SDS011;46331;49.252;8.904;2024-03-29T00:32:52;4.43;;;1.00;;
60488;SDS011;46331;49.252;8.904;2024-03-29T00:33:33;5.87;;;0.93;;
60488;SDS011;46331;49.252;8.904;2024-03-29T00:34:13;3.22;;;0.75;;
60488;SDS011;46331;49.252;8.904;2024-03-29T00:34:54;4.00;;;0.93;;
60488;SDS011;46331;49.252;8.904;2024-03-29T00:35:36;3.13;;;0.75;;
60488;SDS011;46331;49.252;8.904;2024-03-29T00:36:16;6.17;;;0.80;;
60488;SDS011;46331;49.252;8.904;2024-03-29T00:36:57;5.28;;;1.08;;
60488;SDS011;46331;49.252;8.904;2024-03-29T00:37:37;4.67;;;1.00;;
60488;SDS011;46331;49.252;8.904;2024-03-29T00:38:18;4.13;;;0.83;;
60488;SDS011;46331;49.252;8.904;2024-03-29T00:38:58;3.95;;;0.98;;
60488;SDS011;46331;49.252;8.904;2024-03-29T00:39:39;3.60;;;1.00;;
60488;SDS011;46331;49.252;8.904;2024-03-29T00:40:19;4.40;;;0.80;;
60488;SDS011;46331;49.252;8.904;2024-03-29T00:41:00;2.40;;;0.60;;
60488;SDS011;46331;49.252;8.904;2024-03-29T00:41:40;2.72;;;0.52;;
60488;SDS011;46331;49.252;8.904;2024-03-29T00:42:21;3.13;;;0.70;;
60488;SDS011;46331;49.252;8.904;2024-03-29T00:43:02;3.92;;;0.70;;
60488;SDS011;46331;49.252;8.904;2024-03-29T00:43:42;4.13;;;0.70;;
60488;SDS011;46331;49.252;8.904;2024-03-29T00:44:23;3.47;;;0.57;;
60488;SDS011;46331;49.252;8.904;2024-03-29T00:45:03;3.38;;;0.73;;
60488;SDS011;46331;49.252;8.904;2024-03-29T00:45:44;3.10;;;0.60;;
60488;SDS011;46331;49.252;8.904;2024-03-29T00:46:25;3.50;;;0.70;;
60488;SDS011;46331;49.252;8.904;2024-03-29T00:47:05;3.78;;;0.60;;
60488;SDS011;46331;49.252;8.904;2024-03-29T00:47:46;5.17;;;0.93;;
60488;SDS011;46331;49.252;8.904;2024-03-29T00:48:26;2.77;;;0.60;;
60488;SDS011;46331;49.252;8.904;2024-03-29T00:49:07;2.95;;;0.52;;
60488;SDS011;46331;49.252;8.904;2024-03-29T00:49:48;3.20;;;0.80;;
60488;SDS011;46331;49.252;8.904;2024-03-29T00:50:28;5.07;;;0.70;;
60488;SDS011;46331;49.252;8.904;2024-03-29T00:51:09;3.07;;;0.60;;
60488;SDS011;46331;49.252;8.904;2024-03-29T00:51:49;4.63;;;0.70;;
60488;SDS011;46331;49.252;8.904;2024-03-29T00:52:30;4.20;;;0.63;;
60488;SDS011;46331;49.252;8.904;2024-03-29T00:53:10;3.05;;;0.60;;
60488;SDS011;46331;49.252;8.904;2024-03-29T00:53:51;3.40;;;0.60;;
60488;SDS011;46331;49.252;8.904;2024-03-29T00:54:32;4.93;;;0.80;;
60488;SDS011;46331;49.252;8.904;2024-03-29T00:55:13;4.53;;;0.90;;
60488;SDS011;46331;49.252;8.904;2024-03-29T00:55:53;4.97;;;1.13;;
60488;SDS011;46331;49.252;8.904;2024-03-29T00:56:34;4.07;;;0.75;;
60488;SDS011;46331;49.252;8.904;2024-03-29T00:57:14;4.33;;;0.63;;
60488;SDS011;46331;49.252;8.904;2024-03-29T00:57:55;3.17;;;0.68;;
60488;SDS011;46331;49.252;8.904;2024-03-29T00:58:36;3.67;;;0.60;;
60488;SDS011;46331;49.252;8.904;2024-03-29T00:59:17;4.00;;;0.80;;
60488;SDS011;46331;49.252;8.904;2024-03-29T00:59:57;4.23;;;0.70;;
60488;SDS011;46331;49.252;8.904;2024-03-29T01:00:37;3.60;;;0.55;;
60488;SDS011;46331;49.252;8.904;2024-03-29T01:01:18;3.10;;;0.60;;
60488;SDS011;46331;49.252;8.904;2024-03-29T01:01:59;3.17;;;0.63;;
60488;SDS011;46331;49.252;8.904;2024-03-29T01:02:39;4.18;;;0.80;;
60488;SDS011;46331;49.252;8.904;2024-03-29T01:03:20;4.83;;;0.80;;
60488;SDS011;46331;49.252;8.904;2024-03-29T01:04:00;3.50;;;0.82;;
60488;SDS011;46331;49.252;8.904;2024-03-29T01:04:41;3.03;;;0.60;;
60488;SDS011;46331;49.252;8.904;2024-03-29T01:05:21;3.80;;;0.90;;
60488;SDS011;46331;49.252;8.904;2024-03-29T01:06:02;3.93;;;1.00;;
60488;SDS011;46331;49.252;8.904;2024-03-29T01:06:43;4.90;;;0.85;;
60488;SDS011;46331;49.252;8.904;2024-03-29T01:07:23;3.53;;;0.80;;
60488;SDS011;46331;49.252;8.904;2024-03-29T01:08:05;5.45;;;1.27;;
60488;SDS011;46331;49.252;8.904;2024-03-29T01:08:46;5.25;;;0.93;;
60488;SDS011;46331;49.252;8.904;2024-03-29T01:09:26;3.17;;;0.90;;
60488;SDS011;46331;49.252;8.904;2024-03-29T01:10:07;4.70;;;0.73;;
60488;SDS011;46331;49.252;8.904;2024-03-29T01:10:49;3.85;;;0.80;;
60488;SDS011;46331;49.252;8.904;2024-03-29T01:11:30;3.55;;;0.73;;
60488;SDS011;46331;49.252;8.904;2024-03-29T01:12:11;4.97;;;0.68;;
60488;SDS011;46331;49.252;8.904;2024-03-29T01:12:51;2.90;;;0.50;;
60488;SDS011;46331;49.252;8.904;2024-03-29T01:13:32;2.13;;;0.50;;
60488;SDS011;46331;49.252;8.904;2024-03-29T01:14:12;4.32;;;0.75;;
60488;SDS011;46331;49.252;8.904;2024-03-29T01:14:53;4.03;;;0.70;;
60488;SDS011;46331;49.252;8.904;2024-03-29T01:15:33;2.95;;;0.57;;
60488;SDS011;46331;49.252;8.904;2024-03-29T01:16:14;4.13;;;0.90;;
60488;SDS011;46331;49.252;8.904;2024-03-29T01:16:54;3.67;;;0.60;;
60488;SDS011;46331;49.252;8.904;2024-03-29T01:17:35;2.70;;;0.60;;
60488;SDS011;46331;49.252;8.904;2024-03-29T01:18:15;2.90;;;0.60;;
60488;SDS011;46331;49.252;8.904;2024-03-29T01:18:59;2.50;;;0.60;;
60488;SDS011;46331;49.252;8.904;2024-03-29T01:19:39;3.25;;;0.70;;
60488;SDS011;46331;49.252;8.904;2024-03-29T01:20:20;3.73;;;0.50;;
60488;SDS011;46331;49.252;8.904;2024-03-29T01:21:01;2.92;;;0.52;;
60488;SDS011;46331;49.252;8.904;2024-03-29T01:21:41;1.90;;;0.40;;
60488;SDS011;46331;49.252;8.904;2024-03-29T01:22:22;2.70;;;0.40;;
60488;SDS011;46331;49.252;8.904;2024-03-29T01:23:02;2.97;;;0.50;;
60488;SDS011;46331;49.252;8.904;2024-03-29T01:23:43;4.50;;;0.50;;
60488;SDS011;46331;49.252;8.904;2024-03-29T01:24:24;3.17;;;0.40;;
60488;SDS011;46331;49.252;8.904;2024-03-29T01:25:05;5.32;;;0.70;;
60488;SDS011;46331;49.252;8.904;2024-03-29T01:25:48;3.75;;;0.60;;
60488;SDS011;46331;49.252;8.904;2024-03-29T01:26:28;2.87;;;0.60;;
60488;SDS011;46331;49.252;8.904;2024-03-29T01:27:09;2.90;;;0.60;;
60488;SDS011;46331;49.252;8.904;2024-03-29T01:27:49;3.20;;;0.40;;
60488;SDS011;46331;49.252;8.904;2024-03-29T01:28:30;2.88;;;0.50;;
60488;SDS011;46331;49.252;8.904;2024-03-29T01:29:10;2.00;;;0.50;;
60488;SDS011;46331;49.252;8.904;2024-03-29T01:29:51;3.37;;;0.50;;
60488;SDS011;46331;49.252;8.904;2024-03-29T01:30:32;2.35;;;0.40;;
60488;SDS011;46331;49.252;8.904;2024-03-29T01:31:12;2.63;;;0.52;;
60488;SDS011;46331;49.252;8.904;2024-03-29T01:31:53;2.67;;;0.40;;
60488;SDS011;46331;49.252;8.904;2024-03-29T01:32:33;2.53;;;0.50;;
60488;SDS011;46331;49.252;8.904;2024-03-29T01:33:14;1.50;;;0.40;;
60488;SDS011;46331;49.252;8.904;2024-03-29T01:33:54;3.17;;;0.50;;
60488;SDS011;46331;49.252;8.904;2024-03-29T01:34:37;3.72;;;0.50;;
60488;SDS011;46331;49.252;8.904;2024-03-29T01:35:18;3.78;;;0.60;;
60488;SDS011;46331;49.252;8.904;2024-03-29T01:35:59;4.00;;;1.10;;
60488;SDS011;46331;49.252;8.904;2024-03-29T01:36:39;2.90;;;0.70;;
60488;SDS011;46331;49.252;8.904;2024-03-29T01:37:20;4.28;;;0.75;;
60488;SDS011;46331;49.252;8.904;2024-03-29T01:38:00;4.10;;;0.80;;
60488;SDS011;46331;49.252;8.904;2024-03-29T01:38:41;3.60;;;0.80;;
60488;SDS011;46331;49.252;8.904;2024-03-29T01:39:22;4.47;;;0.90;;
60488;SDS011;46331;49.252;8.904;2024-03-29T01:40:08;3.03;;;0.70;;
60488;SDS011;46331;49.252;8.904;2024-03-29T01:40:50;3.78;;;0.63;;
60488;SDS011;46331;49.252;8.904;2024-03-29T01:41:31;3.85;;;0.90;;
60488;SDS011;46331;49.252;8.904;2024-03-29T01:42:11;5.10;;;1.00;;
60488;SDS011;46331;49.252;8.904;2024-03-29T01:42:54;4.78;;;1.10;;
60488;SDS011;46331;49.252;8.904;2024-03-29T01:43:35;3.90;;;0.80;;
60488;SDS011;46331;49.252;8.904;2024-03-29T01:44:16;6.85;;;0.82;;
60488;SDS011;46331;49.252;8.904;2024-03-29T01:44:57;6.90;;;0.60;;
60488;SDS011;46331;49.252;8.904;2024-03-29T01:45:39;3.38;;;0.52;;
60488;SDS011;46331;49.252;8.904;2024-03-29T01:46:22;2.38;;;0.45;;
60488;SDS011;46331;49.252;8.904;2024-03-29T01:47:04;3.50;;;0.40;;
60488;SDS011;46331;49.252;8.904;2024-03-29T01:47:45;2.17;;;0.50;;
60488;SDS011;46331;49.252;8.904;2024-03-29T01:48:26;3.55;;;0.70;;
60488;SDS011;46331;49.252;8.904;2024-03-29T01:49:07;4.05;;;0.50;;
60488;SDS011;46331;49.252;8.904;2024-03-29T01:49:49;3.10;;;0.55;;
60488;SDS011;46331;49.252;8.904;2024-03-29T01:50:30;3.67;;;0.57;;
60488;SDS011;46331;49.252;8.904;2024-03-29T01:51:12;3.60;;;0.40;;
60488;SDS011;46331;49.252;8.904;2024-03-29T01:51:54;4.10;;;0.70;;
60488;SDS011;46331;49.252;8.904;2024-03-29T01:52:35;3.85;;;0.70;;
60488;SDS011;46331;49.252;8.904;2024-03-29T01:53:16;4.00;;;0.70;;
60488;SDS011;46331;49.252;8.904;2024-03-29T01:53:59;4.85;;;0.70;;
60488;SDS011;46331;49.252;8.904;2024-03-29T01:54:40;3.28;;;0.50;;
60488;SDS011;46331;49.252;8.904;2024-03-29T01:55:22;3.22;;;0.52;;
60488;SDS011;46331;49.252;8.904;2024-03-29T01:56:02;2.42;;;0.50;;
60488;SDS011;46331;49.252;8.904;2024-03-29T01:56:44;3.22;;;0.65;;
60488;SDS011;46331;49.252;8.904;2024-03-29T01:57:25;3.10;;;0.67;;
60488;SDS011;46331;49.252;8.904;2024-03-29T01:58:07;3.70;;;0.52;;
60488;SDS011;46331;49.252;8.904;2024-03-29T01:58:49;1.83;;;0.40;;
60488;SDS011;46331;49.252;8.904;2024-03-29T01:59:33;2.35;;;0.50;;
60488;SDS011;46331;49.252;8.904;2024-03-29T02:00:15;2.83;;;0.40;;
60488;SDS011;46331;49.252;8.904;2024-03-29T02:00:57;2.53;;;0.50;;
60488;SDS011;46331;49.252;8.904;2024-03-29T02:01:40;3.90;;;0.60;;
60488;SDS011;46331;49.252;8.904;2024-03-29T02:02:21;3.67;;;0.60;;
60488;SDS011;46331;49.252;8.904;2024-03-29T02:03:02;2.78;;;0.50;;
60488;SDS011;46331;49.252;8.904;2024-03-29T02:03:44;3.13;;;0.60;;
60488;SDS011;46331;49.252;8.904;2024-03-29T02:04:26;2.10;;;0.40;;
60488;SDS011;46331;49.252;8.904;2024-03-29T02:05:07;4.07;;;0.98;;
60488;SDS011;46331;49.252;8.904;2024-03-29T02:05:47;1.97;;;0.40;;
60488;SDS011;46331;49.252;8.904;2024-03-29T02:06:29;3.95;;;0.65;;
60488;SDS011;46331;49.252;8.904;2024-03-29T02:07:10;2.13;;;0.40;;
60488;SDS011;46331;49.252;8.904;2024-03-29T02:07:50;1.73;;;0.50;;
60488;SDS011;46331;49.252;8.904;2024-03-29T02:08:32;3.60;;;0.43;;
60488;SDS011;46331;49.252;8.904;2024-03-29T02:09:14;4.57;;;0.70;;
60488;SDS011;46331;49.252;8.904;2024-03-29T02:09:54;2.27;;;0.50;;
60488;SDS011;46331;49.252;8.904;2024-03-29T02:10:35;2.40;;;0.40;;
60488;SDS011;46331;49.252;8.904;2024-03-29T02:11:15;2.58;;;0.50;;
60488;SDS011;46331;49.252;8.904;2024-03-29T02:11:56;2.87;;;0.57;;
60488;SDS011;46331;49.252;8.904;2024-03-29T02:12:36;2.83;;;0.60;;
60488;SDS011;46331;49.252;8.904;2024-03-29T02:13:17;2.63;;;0.57;;
60488;SDS011;46331;49.252;8.904;2024-03-29T02:13:57;3.60;;;0.65;;
60488;SDS011;46331;49.252;8.904;2024-03-29T02:14:38;3.03;;;0.73;;
60488;SDS011;46331;49.252;8.904;2024-03-29T02:15:20;2.88;;;0.50;;
60488;SDS011;46331;49.252;8.904;2024-03-29T02:16:01;3.87;;;0.53;;
60488;SDS011;46331;49.252;8.904;2024-03-29T02:16:41;2.53;;;0.50;;
60488;SDS011;46331;49.252;8.904;2024-03-29T02:17:22;2.87;;;0.40;;
60488;SDS011;46331;49.252;8.904;2024-03-29T02:18:03;3.78;;;0.50;;
60488;SDS011;46331;49.252;8.904;2024-03-29T02:18:43;2.70;;;0.47;;
60488;SDS011;46331;49.252;8.904;2024-03-29T02:19:24;2.58;;;0.40;;
60488;SDS011;46331;49.252;8.904;2024-03-29T02:20:04;2.57;;;0.60;;
60488;SDS011;46331;49.252;8.904;2024-03-29T02:20:45;2.70;;;0.55;;
60488;SDS011;46331;49.252;8.904;2024-03-29T02:21:26;3.90;;;0.50;;
60488;SDS011;46331;49.252;8.904;2024-03-29T02:22:07;3.47;;;0.70;;
60488;SDS011;46331;49.252;8.904;2024-03-29T02:22:52;3.00;;;0.60;;
60488;SDS011;46331;49.252;8.904;2024-03-29T02:23:36;3.53;;;0.63;;
60488;SDS011;46331;49.252;8.904;2024-03-29T02:24:17;3.00;;;0.57;;
60488;SDS011;46331;49.252;8.904;2024-03-29T02:24:58;2.78;;;0.55;;
60488;SDS011;46331;49.252;8.904;2024-03-29T02:25:39;5.20;;;0.70;;
60488;SDS011;46331;49.252;8.904;2024-03-29T02:26:20;3.83;;;0.63;;
60488;SDS011;46331;49.252;8.904;2024-03-29T02:27:00;3.87;;;0.57;;
60488;SDS011;46331;49.252;8.904;2024-03-29T02:27:41;3.90;;;0.60;;
60488;SDS011;46331;49.252;8.904;2024-03-29T02:28:22;4.10;;;0.60;;
60488;SDS011;46331;49.252;8.904;2024-03-29T02:29:03;3.15;;;0.57;;
60488;SDS011;46331;49.252;8.904;2024-03-29T02:29:44;3.13;;;0.50;;
60488;SDS011;46331;49.252;8.904;2024-03-29T02:30:24;2.78;;;0.50;;
60488;SDS011;46331;49.252;8.904;2024-03-29T02:31:05;3.93;;;0.60;;
60488;SDS011;46331;49.252;8.904;2024-03-29T02:31:45;3.07;;;0.50;;
60488;SDS011;46331;49.252;8.904;2024-03-29T02:32:26;3.33;;;0.60;;
60488;SDS011;46331;49.252;8.904;2024-03-29T02:33:06;4.20;;;0.70;;
60488;SDS011;46331;49.252;8.904;2024-03-29T02:33:47;3.00;;;0.70;;
60488;SDS011;46331;49.252;8.904;2024-03-29T02:34:27;2.23;;;0.40;;
60488;SDS011;46331;49.252;8.904;2024-03-29T02:35:08;3.33;;;0.50;;
60488;SDS011;46331;49.252;8.904;2024-03-29T02:35:48;3.60;;;0.60;;
60488;SDS011;46331;49.252;8.904;2024-03-29T02:36:29;2.07;;;0.40;;
60488;SDS011;46331;49.252;8.904;2024-03-29T02:37:10;4.03;;;0.40;;
60488;SDS011;46331;49.252;8.904;2024-03-29T02:37:50;2.73;;;0.50;;
60488;SDS011;46331;49.252;8.904;2024-03-29T02:38:31;2.33;;;0.40;;
60488;SDS011;46331;49.252;8.904;2024-03-29T02:39:11;2.17;;;0.55;;
60488;SDS011;46331;49.252;8.904;2024-03-29T02:39:52;4.00;;;0.60;;
60488;SDS011;46331;49.252;8.904;2024-03-29T02:40:32;3.73;;;0.70;;
60488;SDS011;46331;49.252;8.904;2024-03-29T02:41:13;3.67;;;0.50;;
60488;SDS011;46331;49.252;8.904;2024-03-29T02:41:54;2.10;;;0.53;;
60488;SDS011;46331;49.252;8.904;2024-03-29T02:42:34;2.42;;;0.35;;
60488;SDS011;46331;49.252;8.904;2024-03-29T02:43:16;2.50;;;0.60;;
60488;SDS011;46331;49.252;8.904;2024-03-29T02:43:56;3.57;;;0.80;;
60488;SDS011;46331;49.252;8.904;2024-03-29T02:44:37;4.47;;;0.50;;
60488;SDS011;46331;49.252;8.904;2024-03-29T02:45:17;2.92;;;0.50;;
60488;SDS011;46331;49.252;8.904;2024-03-29T02:45:58;2.50;;;0.40;;
60488;SDS011;46331;49.252;8.904;2024-03-29T02:46:38;2.05;;;0.40;;
60488;SDS011;46331;49.252;8.904;2024-03-29T02:47:19;2.67;;;0.57;;
60488;SDS011;46331;49.252;8.904;2024-03-29T02:47:59;2.73;;;0.60;;
60488;SDS011;46331;49.252;8.904;2024-03-29T02:48:40;1.80;;;0.40;;
60488;SDS011;46331;49.252;8.904;2024-03-29T02:49:21;1.65;;;0.30;;
60488;SDS011;46331;49.252;8.904;2024-03-29T02:50:02;2.87;;;0.50;;
60488;SDS011;46331;49.252;8.904;2024-03-29T02:50:43;3.80;;;0.63;;
60488;SDS011;46331;49.252;8.904;2024-03-29T02:51:24;3.30;;;0.83;;
60488;SDS011;46331;49.252;8.904;2024-03-29T02:52:04;3.13;;;0.50;;
60488;SDS011;46331;49.252;8.904;2024-03-29T02:52:45;3.53;;;0.57;;
60488;SDS011;46331;49.252;8.904;2024-03-29T02:53:25;2.15;;;0.40;;
60488;SDS011;46331;49.252;8.904;2024-03-29T02:54:06;2.80;;;0.40;;
60488;SDS011;46331;49.252;8.904;2024-03-29T02:54:46;3.65;;;0.50;;
60488;SDS011;46331;49.252;8.904;2024-03-29T02:55:27;1.87;;;0.50;;
60488;SDS011;46331;49.252;8.904;2024-03-29T02:56:07;2.15;;;0.40;;
60488;SDS011;46331;49.252;8.904;2024-03-29T02:56:48;3.87;;;0.60;;
60488;SDS011;46331;49.252;8.904;2024-03-29T02:57:28;3.13;;;0.50;;
60488;SDS011;46331;49.252;8.904;2024-03-29T02:58:09;2.17;;;0.40;;
60488;SDS011;46331;49.252;8.904;2024-03-29T02:58:50;2.33;;;0.40;;
60488;SDS011;46331;49.252;8.904;2024-03-29T02:59:32;2.63;;;0.50;;
60488;SDS011;46331;49.252;8.904;2024-03-29T03:00:12;3.25;;;0.50;;
60488;SDS011;46331;49.252;8.904;2024-03-29T03:00:53;3.30;;;0.40;;
60488;SDS011;46331;49.252;8.904;2024-03-29T03:01:34;2.90;;;0.50;;
60488;SDS011;46331;49.252;8.904;2024-03-29T03:02:14;2.23;;;0.60;;
60488;SDS011;46331;49.252;8.904;2024-03-29T03:02:55;2.70;;;0.40;;
60488;SDS011;46331;49.252;8.904;2024-03-29T03:03:35;2.27;;;0.50;;
60488;SDS011;46331;49.252;8.904;2024-03-29T03:04:17;1.52;;;0.40;;
60488;SDS011;46331;49.252;8.904;2024-03-29T03:04:57;2.42;;;0.35;;
60488;SDS011;46331;49.252;8.904;2024-03-29T03:05:39;2.47;;;0.40;;
60488;SDS011;46331;49.252;8.904;2024-03-29T03:06:20;3.43;;;0.40;;
60488;SDS011;46331;49.252;8.904;2024-03-29T03:07:00;1.73;;;0.50;;
60488;SDS011;46331;49.252;8.904;2024-03-29T03:08:00;2.60;;;0.60;;
60488;SDS011;46331;49.252;8.904;2024-03-29T03:08:59;1.63;;;0.32;;
60488;SDS011;46331;49.252;8.904;2024-03-29T03:09:57;2.65;;;0.40;;
60488;SDS011;46331;49.252;8.904;2024-03-29T03:11:13;1.88;;;0.40;;
60488;SDS011;46331;49.252;8.904;2024-03-29T03:11:54;2.43;;;0.40;;
60488;SDS011;46331;49.252;8.904;2024-03-29T03:12:34;2.90;;;0.50;;
60488;SDS011;46331;49.252;8.904;2024-03-29T03:13:15;2.83;;;0.50;;
60488;SDS011;46331;49.252;8.904;2024-03-29T03:13:55;2.80;;;0.40;;
60488;SDS011;46331;49.252;8.904;2024-03-29T03:14:36;1.97;;;0.43;;
60488;SDS011;46331;49.252;8.904;2024-03-29T03:15:16;2.00;;;0.30;;
60488;SDS011;46331;49.252;8.904;2024-03-29T03:15:57;1.60;;;0.30;;
60488;SDS011;46331;49.252;8.904;2024-03-29T03:16:37;2.30;;;0.40;;
60488;SDS011;46331;49.252;8.904;2024-03-29T03:17:18;3.03;;;0.60;;
60488;SDS011;46331;49.252;8.904;2024-03-29T03:17:58;3.17;;;0.40;;
60488;SDS011;46331;49.252;8.904;2024-03-29T03:18:39;2.22;;;0.40;;
60488;SDS011;46331;49.252;8.904;2024-03-29T03:19:19;1.53;;;0.27;;
60488;SDS011;46331;49.252;8.904;2024-03-29T03:20:00;2.83;;;0.50;;
60488;SDS011;46331;49.252;8.904;2024-03-29T03:20:41;4.07;;;0.50;;
60488;SDS011;46331;49.252;8.904;2024-03-29T03:21:21;3.93;;;0.80;;
60488;SDS011;46331;49.252;8.904;2024-03-29T03:22:02;2.77;;;0.60;;
60488;SDS011;46331;49.252;8.904;2024-03-29T03:22:42;2.20;;;0.50;;
60488;SDS011;46331;49.252;8.904;2024-03-29T03:23:23;1.90;;;0.38;;
60488;SDS011;46331;49.252;8.904;2024-03-29T03:24:04;4.07;;;0.68;;
60488;SDS011;46331;49.252;8.904;2024-03-29T03:24:45;3.03;;;0.50;;
60488;SDS011;46331;49.252;8.904;2024-03-29T03:25:26;2.57;;;0.30;;
60488;SDS011;46331;49.252;8.904;2024-03-29T03:26:07;1.77;;;0.40;;
60488;SDS011;46331;49.252;8.904;2024-03-29T03:26:48;1.63;;;0.30;;
60488;SDS011;46331;49.252;8.904;2024-03-29T03:27:28;1.93;;;0.47;;
60488;SDS011;46331;49.252;8.904;2024-03-29T03:28:09;2.77;;;0.40;;
60488;SDS011;46331;49.252;8.904;2024-03-29T03:28:50;1.83;;;0.43;;
60488;SDS011;46331;49.252;8.904;2024-03-29T03:29:30;2.03;;;0.37;;
60488;SDS011;46331;49.252;8.904;2024-03-29T03:30:11;4.43;;;0.50;;
60488;SDS011;46331;49.252;8.904;2024-03-29T03:30:52;2.70;;;0.50;;
60488;SDS011;46331;49.252;8.904;2024-03-29T03:31:33;2.17;;;0.47;;
60488;SDS011;46331;49.252;8.904;2024-03-29T03:32:14;2.08;;;0.40;;
60488;SDS011;46331;49.252;8.904;2024-03-29T03:32:54;2.27;;;0.43;;
60488;SDS011;46331;49.252;8.904;2024-03-29T03:33:35;3.20;;;0.30;;
60488;SDS011;46331;49.252;8.904;2024-03-29T03:34:15;1.70;;;0.40;;
60488;SDS011;46331;49.252;8.904;2024-03-29T03:34:56;1.55;;;0.30;;
60488;SDS011;46331;49.252;8.904;2024-03-29T03:35:36;4.33;;;0.50;;
60488;SDS011;46331;49.252;8.904;2024-03-29T03:36:17;2.23;;;0.30;;
60488;SDS011;46331;49.252;8.904;2024-03-29T03:36:57;1.75;;;0.30;;
60488;SDS011;46331;49.252;8.904;2024-03-29T03:37:38;2.37;;;0.60;;
60488;SDS011;46331;49.252;8.904;2024-03-29T03:38:18;1.85;;;0.38;;
60488;SDS011;46331;49.252;8.904;2024-03-29T03:38:59;3.83;;;0.30;;
60488;SDS011;46331;49.252;8.904;2024-03-29T03:39:40;1.77;;;0.30;;
60488;SDS011;46331;49.252;8.904;2024-03-29T03:40:20;2.30;;;0.40;;
60488;SDS011;46331;49.252;8.904;2024-03-29T03:41:01;2.50;;;0.30;;
60488;SDS011;46331;49.252;8.904;2024-03-29T03:41:41;2.40;;;0.60;;
60488;SDS011;46331;49.252;8.904;2024-03-29T03:42:21;2.67;;;0.50;;
60488;SDS011;46331;49.252;8.904;2024-03-29T03:43:02;3.10;;;0.40;;
60488;SDS011;46331;49.252;8.904;2024-03-29T03:43:43;3.57;;;0.40;;
60488;SDS011;46331;49.252;8.904;2024-03-29T03:44:24;2.10;;;0.45;;
60488;SDS011;46331;49.252;8.904;2024-03-29T03:45:05;2.40;;;0.50;;
60488;SDS011;46331;49.252;8.904;2024-03-29T03:45:45;3.33;;;0.50;;
60488;SDS011;46331;49.252;8.904;2024-03-29T03:46:28;2.05;;;0.40;;
60488;SDS011;46331;49.252;8.904;2024-03-29T03:47:08;2.25;;;0.35;;
60488;SDS011;46331;49.252;8.904;2024-03-29T03:47:49;2.03;;;0.50;;
60488;SDS011;46331;49.252;8.904;2024-03-29T03:48:29;4.00;;;0.60;;
60488;SDS011;46331;49.252;8.904;2024-03-29T03:49:10;3.25;;;0.70;;
60488;SDS011;46331;49.252;8.904;2024-03-29T03:49:50;2.43;;;0.30;;
60488;SDS011;46331;49.252;8.904;2024-03-29T03:50:31;3.83;;;0.45;;
60488;SDS011;46331;49.252;8.904;2024-03-29T03:51:12;2.25;;;0.50;;
60488;SDS011;46331;49.252;8.904;2024-03-29T03:51:53;5.47;;;0.40;;
60488;SDS011;46331;49.252;8.904;2024-03-29T03:52:34;1.90;;;0.32;;
60488;SDS011;46331;49.252;8.904;2024-03-29T03:53:14;3.40;;;0.50;;
60488;SDS011;46331;49.252;8.904;2024-03-29T03:53:55;2.25;;;0.40;;
60488;SDS011;46331;49.252;8.904;2024-03-29T03:54:36;2.87;;;0.47;;
60488;SDS011;46331;49.252;8.904;2024-03-29T03:55:16;2.08;;;0.43;;
60488;SDS011;46331;49.252;8.904;2024-03-29T03:55:57;2.97;;;0.50;;
60488;SDS011;46331;49.252;8.904;2024-03-29T03:56:37;2.08;;;0.40;;
60488;SDS011;46331;49.252;8.904;2024-03-29T03:57:18;1.80;;;0.50;;
60488;SDS011;46331;49.252;8.904;2024-03-29T03:57:58;2.40;;;0.70;;
60488;SDS011;46331;49.252;8.904;2024-03-29T03:58:38;2.42;;;0.30;;
60488;SDS011;46331;49.252;8.904;2024-03-29T03:59:20;2.40;;;0.50;;
60488;SDS011;46331;49.252;8.904;2024-03-29T04:00:00;2.40;;;0.40;;
60488;SDS011;46331;49.252;8.904;2024-03-29T04:00:41;2.15;;;0.30;;
60488;SDS011;46331;49.252;8.904;2024-03-29T04:01:22;1.80;;;0.40;;
60488;SDS011;46331;49.252;8.904;2024-03-29T04:02:02;2.05;;;0.40;;
60488;SDS011;46331;49.252;8.904;2024-03-29T04:02:46;3.73;;;0.40;;
60488;SDS011;46331;49.252;8.904;2024-03-29T04:03:30;3.15;;;0.40;;
60488;SDS011;46331;49.252;8.904;2024-03-29T04:04:10;2.30;;;0.40;;
60488;SDS011;46331;49.252;8.904;2024-03-29T04:04:51;1.27;;;0.30;;
60488;SDS011;46331;49.252;8.904;2024-03-29T04:05:32;3.78;;;0.70;;
60488;SDS011;46331;49.252;8.904;2024-03-29T04:06:12;2.77;;;0.57;;
60488;SDS011;46331;49.252;8.904;2024-03-29T04:06:53;2.47;;;0.50;;
60488;SDS011;46331;49.252;8.904;2024-03-29T04:07:33;1.70;;;0.40;;